Schedule Details

Flight Number: ASX130X
Departure: Princess Juliana (TNCM) at 23:10Z
Arrival: Warszawa Chopina (EPWA) at 08:10Z

Weather Information
TNCM 241200Z 10012KT 060V140 9999 SCT018 25/18 Q1018 A3007 NOSIG
EPWA 241200Z 03013KT 9999 FEW032 M04/M12 Q1025 R11/2/0295 NOSIG

Schedule Frequency

Route Map